Time;durP1;ratioP1;P1;durP2;ratioP2;P2;SDS_P1;SDS_P2;PMS_P1;PMS_P2;Temp;Humidity;BMP_temperature;BMP_pressure;BME280_temperature;BME280_humidity;BME280_pressure;Samples;Min_cycle;Max_cycle;Signal;HPM_P1;HPM_P2
2022/08/17 00:00:12;;;;;;;3.45;3.15;;;18.70;99.90;;;;;;5044003;28;20262;-72
2022/08/17 00:03:14;;;;;;;3.78;3.47;;;18.70;99.90;;;;;;5043411;28;20180;-73
2022/08/17 00:05:48;;;;;;;3.40;3.10;;;18.70;99.90;;;;;;5043822;28;20191;-73
2022/08/17 00:08:17;;;;;;;4.28;3.70;;;18.60;99.90;;;;;;5044340;28;20226;-73
2022/08/17 00:10:44;;;;;;;5.28;3.58;;;18.60;99.90;;;;;;5042399;28;20181;-72
2022/08/17 00:13:23;;;;;;;4.22;3.80;;;18.60;99.90;;;;;;5043684;28;20242;-74
2022/08/17 00:15:50;;;;;;;5.20;3.50;;;18.60;99.90;;;;;;5031390;28;20204;-73
2022/08/17 00:18:16;;;;;;;3.63;3.42;;;18.50;99.90;;;;;;5034016;28;20187;-74
2022/08/17 00:20:41;;;;;;;4.35;3.55;;;18.50;99.90;;;;;;5042839;28;20256;-73
2022/08/17 00:23:13;;;;;;;3.80;3.50;;;18.60;99.90;;;;;;5043672;28;20650;-73
2022/08/17 00:25:40;;;;;;;7.95;3.40;;;18.50;99.90;;;;;;5037471;28;20184;-73
2022/08/17 00:28:06;;;;;;;3.20;3.00;;;18.40;99.90;;;;;;5041937;28;20232;-73
2022/08/17 00:30:34;;;;;;;4.07;3.75;;;18.40;99.90;;;;;;5046150;28;20186;-74
2022/08/17 00:33:06;;;;;;;3.80;3.60;;;18.40;99.90;;;;;;5043365;28;20168;-73
2022/08/17 00:35:33;;;;;;;4.45;3.10;;;18.40;99.90;;;;;;5041474;28;20266;-74
2022/08/17 00:37:59;;;;;;;3.50;3.30;;;18.30;99.90;;;;;;5046560;28;20352;-73
2022/08/17 00:40:25;;;;;;;4.68;3.60;;;18.30;99.90;;;;;;5050471;28;20650;-73
2022/08/17 00:42:52;;;;;;;3.75;3.13;;;18.30;99.90;;;;;;5043907;28;20544;-74
2022/08/17 00:45:19;;;;;;;3.67;3.40;;;18.30;99.90;;;;;;5042003;28;20651;-74
2022/08/17 00:47:45;;;;;;;4.05;3.25;;;18.20;99.90;;;;;;5044333;28;20211;-73
2022/08/17 00:50:14;;;;;;;4.00;3.33;;;18.10;99.90;;;;;;5042999;28;20643;-74
2022/08/17 00:52:52;;;;;;;4.28;3.35;;;18.10;99.90;;;;;;5039759;28;20188;-73
2022/08/17 00:55:19;;;;;;;6.03;3.97;;;18.00;99.90;;;;;;5038120;28;20177;-74
2022/08/17 00:57:49;;;;;;;5.38;3.83;;;18.00;99.90;;;;;;5050757;28;20242;-73
2022/08/17 01:00:25;;;;;;;3.92;3.60;;;18.00;99.90;;;;;;5033698;28;20636;-74
2022/08/17 01:02:56;;;;;;;4.00;3.70;;;17.90;99.90;;;;;;5046365;28;20646;-74
2022/08/17 01:05:26;;;;;;;6.07;3.55;;;17.90;99.90;;;;;;5040256;28;20177;-73
2022/08/17 01:07:53;;;;;;;4.57;3.80;;;17.90;99.90;;;;;;5043553;28;20230;-73
2022/08/17 01:10:25;;;;;;;3.63;3.38;;;17.90;99.90;;;;;;5047146;28;20647;-73
2022/08/17 01:12:51;;;;;;;3.78;3.50;;;17.80;99.90;;;;;;5033966;28;20200;-73
2022/08/17 01:15:17;;;;;;;3.88;3.58;;;17.80;99.90;;;;;;5042769;28;20184;-73
2022/08/17 01:17:44;;;;;;;3.88;3.58;;;17.80;99.90;;;;;;5039896;28;20270;-73
2022/08/17 01:20:10;;;;;;;3.85;3.55;;;17.70;99.90;;;;;;5041486;28;20223;-73
2022/08/17 01:22:36;;;;;;;3.47;3.28;;;17.80;99.90;;;;;;5040749;28;20181;-73
2022/08/17 01:25:06;;;;;;;4.15;3.85;;;17.70;99.90;;;;;;5040875;28;20693;-73
2022/08/17 01:27:33;;;;;;;3.97;3.50;;;17.60;99.90;;;;;;5043069;28;20208;-72
2022/08/17 01:30:05;;;;;;;3.78;3.58;;;17.60;99.90;;;;;;5042601;28;20180;-72
2022/08/17 01:32:32;;;;;;;4.45;3.75;;;17.60;99.90;;;;;;5059403;28;20172;-72
2022/08/17 01:34:59;;;;;;;4.28;3.88;;;17.50;99.90;;;;;;5046154;28;20552;-73
2022/08/17 01:37:43;;;;;;;4.35;4.05;;;17.40;99.90;;;;;;5036451;28;20211;-72
2022/08/17 01:40:29;;;;;;;4.80;3.92;;;17.40;99.90;;;;;;5038301;28;20180;-72
2022/08/17 01:42:59;;;;;;;5.00;4.60;;;17.40;99.90;;;;;;5044168;28;20267;-72
2022/08/17 01:45:30;;;;;;;3.75;3.47;;;17.40;99.90;;;;;;5041810;28;20183;-72
2022/08/17 01:47:56;;;;;;;3.72;3.53;;;17.30;99.90;;;;;;5043344;28;20315;-72
2022/08/17 01:50:28;;;;;;;3.85;3.65;;;17.30;99.90;;;;;;5040542;28;20690;-73
2022/08/17 01:53:01;;;;;;;4.30;4.00;;;17.30;99.90;;;;;;5028955;28;20576;-72
2022/08/17 01:55:37;;;;;;;4.07;3.80;;;17.30;99.90;;;;;;5043365;28;20197;-72
2022/08/17 01:58:07;;;;;;;4.40;3.83;;;17.30;99.90;;;;;;5040255;28;20618;-72
2022/08/17 02:00:33;;;;;;;4.65;4.03;;;17.30;99.90;;;;;;5039522;28;21030;-72
2022/08/17 02:02:59;;;;;;;4.30;3.97;;;17.30;99.90;;;;;;5042967;28;20184;-72
2022/08/17 02:05:26;;;;;;;4.55;4.18;;;17.30;99.90;;;;;;5037651;28;20180;-72
2022/08/17 02:07:51;;;;;;;4.60;4.30;;;17.20;99.90;;;;;;5043218;28;20203;-71
2022/08/17 02:10:17;;;;;;;4.70;4.20;;;17.00;99.90;;;;;;5043109;28;20309;-72
2022/08/17 02:12:43;;;;;;;4.60;4.30;;;17.00;99.90;;;;;;5044217;28;20688;-72
2022/08/17 02:15:11;;;;;;;5.18;4.50;;;17.00;99.90;;;;;;5039431;28;20208;-73
2022/08/17 02:17:39;;;;;;;5.63;4.65;;;17.10;99.90;;;;;;5044153;28;20199;-74
2022/08/17 02:20:06;;;;;;;4.82;4.20;;;17.10;99.90;;;;;;5031272;28;20668;-72
2022/08/17 02:22:32;;;;;;;4.22;3.92;;;17.00;99.90;;;;;;5032836;28;20181;-72
2022/08/17 02:25:00;;;;;;;4.45;4.15;;;17.00;99.90;;;;;;5032246;28;20181;-71
2022/08/17 02:27:26;;;;;;;4.72;4.40;;;16.90;99.90;;;;;;5026422;28;20213;-72
2022/08/17 02:29:52;;;;;;;4.78;4.45;;;16.90;99.90;;;;;;5031273;28;20698;-72
2022/08/17 02:32:21;;;;;;;4.32;4.03;;;16.90;99.90;;;;;;5028785;28;20208;-72
2022/08/17 02:34:46;;;;;;;4.57;4.10;;;16.80;99.90;;;;;;5039834;28;20183;-72
2022/08/17 02:37:13;;;;;;;5.50;4.85;;;16.80;99.90;;;;;;5027418;28;20284;-72
2022/08/17 02:39:38;;;;;;;4.85;4.28;;;16.80;99.90;;;;;;5034431;28;20180;-75
2022/08/17 02:42:04;;;;;;;5.07;4.57;;;16.80;99.90;;;;;;5031734;28;20559;-72
2022/08/17 02:44:31;;;;;;;5.18;4.55;;;16.70;99.90;;;;;;5029330;28;20192;-72
2022/08/17 02:46:56;;;;;;;4.80;4.40;;;16.70;99.90;;;;;;5033710;28;20257;-72
2022/08/17 02:49:22;;;;;;;4.75;4.45;;;16.70;99.90;;;;;;5029981;28;20176;-72
2022/08/17 02:51:49;;;;;;;4.68;4.28;;;16.70;99.90;;;;;;5029077;28;20265;-72
2022/08/17 02:54:15;;;;;;;4.47;4.15;;;16.70;99.90;;;;;;5032103;28;20608;-72
2022/08/17 02:56:41;;;;;;;6.00;5.03;;;16.80;99.90;;;;;;5029796;28;20201;-72
2022/08/17 02:59:07;;;;;;;4.82;4.43;;;16.60;99.90;;;;;;5029928;28;20310;-72
2022/08/17 03:01:32;;;;;;;5.22;4.80;;;16.50;99.90;;;;;;5028295;28;20177;-72
2022/08/17 03:03:58;;;;;;;4.72;4.43;;;16.30;99.90;;;;;;5032606;28;20188;-73
2022/08/17 03:06:24;;;;;;;5.32;4.72;;;16.30;99.90;;;;;;5030112;28;20212;-73
2022/08/17 03:08:50;;;;;;;4.75;4.40;;;16.30;99.90;;;;;;5028433;28;20208;-71
2022/08/17 03:11:16;;;;;;;4.82;4.53;;;16.30;99.90;;;;;;5032675;28;20168;-72
2022/08/17 03:13:41;;;;;;;4.82;4.43;;;16.40;99.90;;;;;;5035360;28;20694;-74
2022/08/17 03:16:07;;;;;;;5.20;4.80;;;16.50;99.90;;;;;;5028673;28;20200;-73
2022/08/17 03:18:33;;;;;;;5.30;4.80;;;16.40;99.90;;;;;;5024292;28;20188;-74
2022/08/17 03:21:03;;;;;;;5.68;5.18;;;16.30;99.90;;;;;;5027191;28;20187;-73
2022/08/17 03:23:29;;;;;;;4.78;4.47;;;16.40;99.90;;;;;;5029541;28;20204;-72
2022/08/17 03:25:56;;;;;;;5.18;4.78;;;16.40;99.90;;;;;;5024445;28;20179;-72
2022/08/17 03:28:23;;;;;;;6.65;4.57;;;16.30;99.90;;;;;;5028369;28;20188;-72
2022/08/17 03:30:49;;;;;;;4.88;4.38;;;16.40;99.90;;;;;;5024988;28;20184;-73
2022/08/17 03:33:15;;;;;;;5.10;4.70;;;16.30;99.90;;;;;;5030240;28;20231;-72
2022/08/17 03:35:41;;;;;;;6.60;5.10;;;16.30;99.90;;;;;;5031823;28;20184;-72
2022/08/17 03:38:09;;;;;;;4.93;4.53;;;16.20;99.90;;;;;;5030143;28;20180;-73
2022/08/17 03:40:37;;;;;;;5.28;4.70;;;16.10;99.90;;;;;;5045891;28;20183;-72
2022/08/17 03:43:05;;;;;;;5.47;4.97;;;16.10;99.90;;;;;;5040247;28;20192;-73
2022/08/17 03:56:44;;;;;;;5.65;5.25;;;16.10;99.90;;;;;;5039259;28;20211;-75
2022/08/17 03:59:11;;;;;;;4.93;4.57;;;16.10;99.90;;;;;;5040411;28;20184;-75
2022/08/17 04:01:37;;;;;;;5.38;4.90;;;16.10;99.90;;;;;;5041705;28;20192;-76
2022/08/17 04:04:04;;;;;;;5.82;5.03;;;16.00;99.90;;;;;;5035499;28;20195;-76
2022/08/17 04:06:29;;;;;;;5.32;4.93;;;16.00;99.90;;;;;;5034441;28;20224;-75
2022/08/17 04:08:55;;;;;;;6.57;5.57;;;16.00;99.90;;;;;;5041511;28;20552;-75
2022/08/17 04:11:21;;;;;;;5.68;5.18;;;16.10;99.90;;;;;;5036356;28;20181;-76
2022/08/17 04:13:46;;;;;;;6.35;5.70;;;16.10;99.90;;;;;;5037874;28;20234;-76
2022/08/17 04:16:12;;;;;;;6.53;5.93;;;15.90;99.90;;;;;;5032892;28;20203;-76
2022/08/17 04:18:37;;;;;;;5.72;5.22;;;15.80;99.90;;;;;;5038403;28;20172;-76
2022/08/17 04:21:03;;;;;;;7.15;5.50;;;15.80;99.90;;;;;;5044156;28;20200;-76
2022/08/17 04:23:32;;;;;;;5.70;5.15;;;15.80;99.90;;;;;;5036530;28;20236;-76
2022/08/17 04:25:58;;;;;;;6.20;5.60;;;15.80;99.90;;;;;;5029446;28;20184;-76
2022/08/17 04:28:23;;;;;;;5.53;4.80;;;15.80;99.90;;;;;;5021547;28;20618;-76
2022/08/17 04:30:49;;;;;;;6.53;5.90;;;15.80;99.90;;;;;;5032323;28;20303;-75
2022/08/17 04:33:19;;;;;;;5.63;4.93;;;15.80;99.90;;;;;;5034377;28;20293;-75
2022/08/17 04:35:47;;;;;;;5.60;5.10;;;15.80;99.90;;;;;;5029325;28;20582;-75
2022/08/17 04:38:17;;;;;;;8.35;4.90;;;15.80;99.90;;;;;;5027997;28;20184;-74
2022/08/17 04:43:29;;;;;;;5.22;4.80;;;16.00;99.90;;;;;;5031882;28;20187;-75
2022/08/17 04:45:59;;;;;;;5.68;5.15;;;16.00;99.90;;;;;;5035407;28;20658;-75
2022/08/17 04:48:34;;;;;;;5.30;4.90;;;16.10;99.90;;;;;;5041143;28;20181;-75
2022/08/17 04:51:00;;;;;;;9.10;5.32;;;16.20;99.90;;;;;;5034345;28;20697;-76
2022/08/17 04:53:26;;;;;;;6.43;5.63;;;16.30;99.90;;;;;;5038958;28;20180;-75
2022/08/17 04:55:52;;;;;;;5.93;5.35;;;16.30;99.90;;;;;;5039940;28;20180;-76
2022/08/17 04:58:18;;;;;;;6.10;5.20;;;16.30;99.90;;;;;;5046916;28;20191;-75
2022/08/17 05:00:44;;;;;;;6.85;5.55;;;16.40;99.90;;;;;;5036887;28;20184;-76
2022/08/17 05:03:10;;;;;;;7.13;5.55;;;16.40;99.90;;;;;;5043218;28;20176;-76
2022/08/17 05:05:38;;;;;;;5.78;5.32;;;16.50;99.90;;;;;;5044018;28;20263;-75
2022/08/17 05:08:06;;;;;;;5.50;5.03;;;16.70;99.90;;;;;;5061220;28;20408;-75
2022/08/17 05:10:34;;;;;;;6.55;5.88;;;16.70;99.90;;;;;;5031831;28;20669;-75
2022/08/17 05:13:07;;;;;;;6.68;5.30;;;16.80;99.90;;;;;;5038665;28;20681;-75
2022/08/17 05:15:38;;;;;;;5.68;5.18;;;16.80;99.90;;;;;;5060155;28;20176;-76
2022/08/17 05:18:05;;;;;;;5.50;5.05;;;16.90;99.90;;;;;;5042098;28;20214;-75
2022/08/17 05:20:31;;;;;;;6.47;5.93;;;16.90;99.90;;;;;;5039761;28;20187;-75
2022/08/17 05:22:59;;;;;;;8.23;6.13;;;17.00;99.90;;;;;;5044002;28;20657;-75
2022/08/17 05:25:28;;;;;;;6.20;5.60;;;17.10;99.90;;;;;;5045511;28;20540;-76
2022/08/17 05:27:54;;;;;;;6.78;5.55;;;17.20;99.90;;;;;;5037393;28;20743;-76
2022/08/17 05:30:20;;;;;;;7.75;5.38;;;17.20;99.90;;;;;;5028202;28;20184;-77
2022/08/17 05:32:55;;;;;;;8.35;5.28;;;17.40;99.90;;;;;;5033666;28;20243;-77
2022/08/17 05:35:22;;;;;;;6.47;5.50;;;17.50;99.90;;;;;;5031679;28;20188;-77
2022/08/17 05:37:48;;;;;;;6.40;5.80;;;17.60;99.90;;;;;;5031060;28;20197;-77
2022/08/17 05:40:15;;;;;;;5.75;5.35;;;17.70;99.90;;;;;;5029152;28;20204;-77
2022/08/17 05:42:41;;;;;;;5.80;5.30;;;17.80;99.90;;;;;;5027871;28;20180;-77
2022/08/17 05:45:09;;;;;;;7.15;5.25;;;17.80;99.90;;;;;;5028726;28;20180;-77
2022/08/17 05:47:37;;;;;;;5.55;4.95;;;17.90;99.90;;;;;;5031226;28;20224;-76
2022/08/17 05:50:04;;;;;;;5.97;5.15;;;18.00;99.90;;;;;;5027563;28;20249;-77
2022/08/17 05:52:55;;;;;;;5.75;5.22;;;18.10;99.90;;;;;;5032604;28;20191;-77
2022/08/17 05:55:39;;;;;;;5.88;5.35;;;18.10;99.90;;;;;;5024559;28;20196;-77
2022/08/17 05:58:07;;;;;;;6.30;5.82;;;18.20;99.90;;;;;;5031568;28;20551;-76
2022/08/17 06:00:49;;;;;;;6.45;5.95;;;18.30;99.90;;;;;;5029969;28;20238;-77
2022/08/17 06:03:24;;;;;;;5.40;4.88;;;18.50;99.90;;;;;;5032551;28;20184;-78
2022/08/17 06:06:00;;;;;;;5.55;5.00;;;18.60;99.90;;;;;;5035771;28;20171;-78
2022/08/17 06:08:40;;;;;;;6.13;5.47;;;18.70;99.90;;;;;;5034973;28;20218;-76
2022/08/17 06:11:21;;;;;;;5.47;5.07;;;18.80;99.90;;;;;;5023668;28;20173;-77
2022/08/17 06:13:46;;;;;;;4.72;4.32;;;18.90;99.90;;;;;;5032832;28;20542;-78
2022/08/17 06:16:17;;;;;;;8.13;4.90;;;19.00;99.90;;;;;;5033441;28;20567;-79
2022/08/17 06:18:56;;;;;;;5.28;4.95;;;19.10;99.90;;;;;;5026901;28;20196;-79
2022/08/17 06:21:23;;;;;;;5.47;5.07;;;19.30;99.90;;;;;;5029693;28;20243;-78
2022/08/17 06:23:55;;;;;;;5.07;4.57;;;19.40;99.90;;;;;;5035896;28;20188;-77
2022/08/17 06:26:31;;;;;;;6.38;5.78;;;19.50;99.90;;;;;;5036387;28;20281;-77
2022/08/17 06:29:03;;;;;;;5.45;4.50;;;19.60;99.90;;;;;;5037016;28;20306;-77
2022/08/17 06:31:35;;;;;;;5.15;4.50;;;19.70;99.90;;;;;;5028250;28;20185;-78
2022/08/17 06:34:05;;;;;;;6.18;4.60;;;19.90;99.90;;;;;;5036312;28;20176;-78
2022/08/17 06:36:48;;;;;;;5.50;4.78;;;20.00;99.90;;;;;;5030464;28;20201;-79
2022/08/17 06:39:25;;;;;;;5.05;4.47;;;20.20;99.90;;;;;;5024839;28;20238;-78
2022/08/17 06:41:59;;;;;;;5.32;4.90;;;20.30;99.90;;;;;;5031189;28;20186;-78
2022/08/17 06:44:41;;;;;;;4.88;4.47;;;20.50;99.90;;;;;;5030250;28;20234;-76
2022/08/17 06:47:39;;;;;;;5.50;4.97;;;20.70;99.90;;;;;;5030846;28;20207;-77
2022/08/17 06:50:25;;;;;;;4.50;4.20;;;20.90;99.90;;;;;;5030731;28;20195;-77
2022/08/17 06:53:16;;;;;;;5.03;4.63;;;21.10;99.90;;;;;;5026380;28;20213;-76
2022/08/17 06:55:55;;;;;;;5.63;4.47;;;21.20;99.90;;;;;;5017273;28;20213;-76
2022/08/17 06:58:23;;;;;;;4.53;4.22;;;21.30;99.90;;;;;;5029383;28;20258;-72
2022/08/17 07:00:52;;;;;;;5.03;4.53;;;21.40;99.90;;;;;;5024356;28;20551;-71
2022/08/17 07:03:37;;;;;;;4.45;4.05;;;21.50;99.90;;;;;;5017863;28;20169;-72
2022/08/17 07:06:14;;;;;;;5.28;4.78;;;21.60;99.90;;;;;;5026921;28;20188;-72
2022/08/17 07:08:55;;;;;;;4.70;4.38;;;21.80;99.90;;;;;;5028563;28;20181;-72
2022/08/17 07:11:56;;;;;;;5.38;4.97;;;21.90;99.90;;;;;;5028974;28;20180;-73
2022/08/17 07:15:03;;;;;;;6.85;4.70;;;21.90;99.90;;;;;;5024682;28;20718;-71
2022/08/17 07:17:29;;;;;;;3.88;3.65;;;22.10;99.90;;;;;;5016792;28;20207;-71
2022/08/17 07:20:04;;;;;;;4.68;4.38;;;22.20;99.90;;;;;;5028318;28;20725;-73
2022/08/17 07:23:04;;;;;;;7.10;4.40;;;22.40;99.90;;;;;;5022683;28;20180;-73
2022/08/17 07:25:30;;;;;;;4.18;3.85;;;22.40;99.90;;;;;;5028332;28;20173;-72
2022/08/17 07:27:59;;;;;;;4.05;3.80;;;22.60;99.90;;;;;;5017603;28;20256;-73
2022/08/17 07:30:48;;;;;;;6.20;3.90;;;22.60;99.90;;;;;;5024577;28;20200;-73
2022/08/17 07:33:18;;;;;;;5.97;4.07;;;22.80;99.90;;;;;;5036289;28;20580;-72
2022/08/17 07:35:47;;;;;;;5.47;4.13;;;22.90;99.90;;;;;;5034276;28;20256;-73
2022/08/17 07:38:26;;;;;;;5.18;3.75;;;23.00;99.90;;;;;;5032674;28;20217;-73
2022/08/17 07:41:01;;;;;;;4.55;4.22;;;23.10;99.90;;;;;;5032918;28;20659;-74
2022/08/17 07:43:36;;;;;;;3.88;3.65;;;23.30;99.00;;;;;;5037070;28;20191;-75
2022/08/17 07:49:06;;;;;;;3.08;2.92;;;23.50;97.90;;;;;;5032079;28;20573;-75
2022/08/17 07:51:46;;;;;;;6.05;3.40;;;23.60;96.10;;;;;;5033169;28;20547;-76
2022/08/17 07:54:21;;;;;;;4.10;3.75;;;23.80;95.50;;;;;;5043003;28;20176;-76
2022/08/17 07:57:29;;;;;;;3.67;3.38;;;23.80;95.60;;;;;;5033046;28;20203;-70
2022/08/17 08:00:01;;;;;;;3.47;3.15;;;24.00;95.50;;;;;;5025956;28;20563;-71
2022/08/17 08:02:37;;;;;;;3.70;3.13;;;24.10;94.40;;;;;;5032895;28;20179;-73
2022/08/17 08:05:11;;;;;;;3.78;3.47;;;24.20;94.90;;;;;;5030692;28;20248;-72
2022/08/17 08:07:41;;;;;;;4.82;3.03;;;24.30;94.20;;;;;;5039412;28;20242;-72
2022/08/17 08:10:12;;;;;;;4.95;3.30;;;24.50;93.60;;;;;;5031231;28;20172;-72
2022/08/17 08:12:48;;;;;;;4.60;3.47;;;24.70;92.80;;;;;;5040202;28;20195;-70
2022/08/17 08:15:24;;;;;;;2.90;2.70;;;24.80;93.00;;;;;;5042696;28;20190;-70
2022/08/17 08:17:54;;;;;;;5.15;2.95;;;25.00;93.60;;;;;;5039506;28;20238;-70
2022/08/17 08:20:48;;;;;;;4.40;3.60;;;25.10;91.30;;;;;;5031988;28;20187;-73
2022/08/17 08:23:24;;;;;;;3.20;2.80;;;25.20;90.50;;;;;;5041365;28;20213;-71
2022/08/17 08:26:08;;;;;;;2.75;2.55;;;25.30;89.50;;;;;;5033334;28;20265;-73
2022/08/17 08:29:02;;;;;;;4.03;2.70;;;25.40;89.60;;;;;;5041955;28;20222;-71
2022/08/17 08:32:05;;;;;;;7.38;2.80;;;25.50;87.30;;;;;;5047577;28;20643;-73
2022/08/17 08:34:47;;;;;;;5.70;3.13;;;25.60;89.20;;;;;;5031993;28;20262;-71
2022/08/17 08:37:24;;;;;;;2.80;2.63;;;25.70;87.50;;;;;;5037519;28;20203;-70
2022/08/17 08:40:25;;;;;;;3.85;2.90;;;25.80;86.60;;;;;;5040250;28;20184;-71
2022/08/17 08:43:28;;;;;;;2.40;2.20;;;25.90;86.30;;;;;;5036627;28;20187;-72
2022/08/17 08:46:22;;;;;;;3.50;2.55;;;26.00;82.60;;;;;;5046669;28;20180;-72
2022/08/17 08:49:26;;;;;;;2.60;2.47;;;26.10;84.00;;;;;;5037496;28;20277;-72
2022/08/17 08:51:56;;;;;;;5.18;2.72;;;26.20;82.30;;;;;;5041616;28;20217;-71
2022/08/17 08:54:34;;;;;;;5.43;2.55;;;26.30;81.40;;;;;;5042761;28;20184;-71
2022/08/17 08:57:29;;;;;;;3.00;2.67;;;26.40;80.60;;;;;;5035735;28;20205;-72
2022/08/17 09:00:18;;;;;;;2.20;2.10;;;26.60;80.40;;;;;;5030317;28;20681;-71
2022/08/17 09:03:18;;;;;;;2.90;2.50;;;26.70;78.60;;;;;;5038952;28;20712;-71
2022/08/17 09:05:56;;;;;;;3.33;2.50;;;26.90;77.30;;;;;;5049978;28;20193;-71
2022/08/17 09:08:52;;;;;;;3.67;2.80;;;27.10;78.30;;;;;;5035077;28;20194;-71
2022/08/17 09:11:27;;;;;;;2.67;2.35;;;27.30;77.60;;;;;;5039859;28;20544;-71
2022/08/17 09:14:07;;;;;;;3.53;2.85;;;27.60;74.90;;;;;;5042055;28;20262;-72
2022/08/17 09:16:46;;;;;;;3.38;2.13;;;27.90;73.50;;;;;;5038026;28;20281;-71
2022/08/17 09:19:22;;;;;;;4.30;2.10;;;28.20;71.20;;;;;;5041700;28;20187;-72
2022/08/17 09:22:00;;;;;;;2.15;2.05;;;29.30;67.80;;;;;;5044249;28;20195;-72
2022/08/17 09:24:47;;;;;;;3.25;2.03;;;31.40;61.20;;;;;;5039928;28;20215;-72
2022/08/17 09:27:14;;;;;;;2.10;2.00;;;33.90;56.20;;;;;;5032293;28;20207;-72
2022/08/17 09:29:56;;;;;;;2.28;2.17;;;36.60;51.10;;;;;;5034068;28;20211;-72
2022/08/17 09:32:31;;;;;;;1.90;1.80;;;38.20;46.90;;;;;;5026420;28;20168;-71
2022/08/17 09:35:02;;;;;;;2.70;2.22;;;39.90;44.40;;;;;;5025090;28;20205;-72
2022/08/17 09:38:02;;;;;;;4.40;2.25;;;41.30;40.70;;;;;;5040569;28;20207;-72
2022/08/17 09:40:42;;;;;;;4.97;1.90;;;42.20;39.70;;;;;;5042741;28;20271;-72
2022/08/17 09:43:26;;;;;;;1.75;1.65;;;43.10;37.80;;;;;;5032902;28;20188;-72
2022/08/17 09:45:56;;;;;;;2.45;1.70;;;43.70;36.80;;;;;;5024161;28;20183;-72
2022/08/17 09:48:37;;;;;;;1.70;1.60;;;44.00;36.10;;;;;;5030637;28;20592;-72
2022/08/17 09:51:08;;;;;;;2.85;1.90;;;44.70;35.40;;;;;;5024188;28;20175;-73
2022/08/17 09:53:38;;;;;;;1.92;1.83;;;45.10;34.30;;;;;;5026470;28;20215;-73
2022/08/17 09:56:28;;;;;;;2.72;1.95;;;45.00;34.80;;;;;;5037817;28;20321;-72
2022/08/17 09:59:41;;;;;;;2.10;2.00;;;45.30;34.10;;;;;;5029337;28;20191;-74
2022/08/17 10:02:32;;;;;;;2.03;1.60;;;45.20;33.80;;;;;;5047544;28;20285;-74
2022/08/17 10:05:07;;;;;;;1.90;1.73;;;45.60;33.00;;;;;;5020794;28;20187;-68
2022/08/17 10:07:42;;;;;;;4.90;1.80;;;45.70;33.10;;;;;;5030481;28;20225;-71
2022/08/17 10:10:14;;;;;;;1.52;1.52;;;45.90;33.40;;;;;;5025239;28;20895;-71
2022/08/17 10:13:23;;;;;;;2.63;1.85;;;46.10;32.70;;;;;;5043992;28;20200;-71
2022/08/17 10:16:39;;;;;;;2.00;1.80;;;46.60;32.80;;;;;;5031488;28;20287;-71
2022/08/17 10:19:12;;;;;;;1.90;1.80;;;46.70;31.90;;;;;;5046473;28;20655;-72
2022/08/17 10:27:18;;;;;;;3.45;1.42;;;47.60;30.50;;;;;;5027868;28;20224;-72
2022/08/17 10:29:59;;;;;;;2.03;1.85;;;47.90;30.10;;;;;;5045230;28;20176;-70
2022/08/17 10:32:39;;;;;;;2.00;1.90;;;48.30;29.90;;;;;;5034247;28;20188;-71
2022/08/17 10:35:06;;;;;;;4.40;1.80;;;47.40;30.50;;;;;;5035798;28;20756;-71
2022/08/17 10:37:48;;;;;;;1.63;1.40;;;47.10;31.00;;;;;;5034981;28;20216;-71
2022/08/17 10:40:38;;;;;;;1.52;1.48;;;47.20;30.60;;;;;;5013487;28;20543;-70
2022/08/17 10:43:35;;;;;;;2.53;1.90;;;46.50;30.80;;;;;;5020372;28;20247;-71
2022/08/17 10:46:23;;;;;;;2.38;1.85;;;46.50;30.70;;;;;;5027712;28;20183;-70
2022/08/17 10:49:17;;;;;;;2.40;1.80;;;46.50;30.60;;;;;;5022063;28;20187;-71
2022/08/17 10:51:48;;;;;;;2.38;2.08;;;46.60;30.40;;;;;;5038615;28;20172;-72
2022/08/17 10:54:39;;;;;;;1.30;1.30;;;47.00;30.60;;;;;;5040356;28;20183;-72
2022/08/17 10:57:25;;;;;;;3.75;2.05;;;47.70;30.00;;;;;;5020102;28;20232;-72
2022/08/17 10:59:53;;;;;;;2.90;1.63;;;48.30;29.40;;;;;;5029950;28;20657;-73
2022/08/17 11:02:21;;;;;;;1.50;1.40;;;48.90;28.70;;;;;;5019458;28;20215;-73
2022/08/17 11:04:56;;;;;;;1.60;1.30;;;48.70;28.50;;;;;;5021363;28;20733;-70
2022/08/17 11:07:52;;;;;;;3.22;1.60;;;48.70;28.70;;;;;;5036447;28;20360;-72
2022/08/17 11:10:52;;;;;;;3.78;1.88;;;48.60;29.20;;;;;;5018484;28;20260;-71
2022/08/17 11:13:36;;;;;;;2.92;1.52;;;48.20;29.40;;;;;;5025713;28;20192;-71
2022/08/17 11:16:47;;;;;;;1.58;1.48;;;47.90;29.70;;;;;;5021869;28;20196;-72
2022/08/17 11:19:19;;;;;;;1.90;1.80;;;47.90;29.30;;;;;;5022908;28;20200;-70
2022/08/17 11:22:04;;;;;;;1.65;1.55;;;48.00;29.30;;;;;;5026679;28;20182;-70
2022/08/17 11:24:39;;;;;;;1.48;1.48;;;47.80;29.20;;;;;;5023034;28;20267;-72
2022/08/17 11:27:25;;;;;;;2.03;1.50;;;47.90;29.40;;;;;;5027162;28;20214;-78
2022/08/17 11:29:59;;;;;;;1.58;1.50;;;48.50;28.40;;;;;;5034555;28;20316;-74
2022/08/17 11:32:51;;;;;;;1.58;1.48;;;48.70;28.60;;;;;;5026480;28;20322;-74
2022/08/17 11:35:19;;;;;;;1.65;1.55;;;47.80;29.20;;;;;;5011796;28;20264;-73
2022/08/17 11:38:01;;;;;;;1.90;1.80;;;47.90;29.00;;;;;;5024121;28;20204;-74
2022/08/17 11:40:37;;;;;;;1.50;1.40;;;47.70;29.10;;;;;;5020649;28;20180;-74
2022/08/17 11:43:26;;;;;;;1.65;1.58;;;48.00;29.00;;;;;;5024321;28;20587;-74
2022/08/17 11:45:52;;;;;;;2.80;1.67;;;48.30;29.00;;;;;;5032065;28;20658;-74
2022/08/17 11:51:32;;;;;;;1.58;1.50;;;47.50;28.40;;;;;;5021840;28;20196;-74
2022/08/17 11:54:08;;;;;;;1.83;1.65;;;47.40;28.40;;;;;;5029031;28;20273;-71
2022/08/17 11:56:40;;;;;;;1.77;1.67;;;48.00;28.50;;;;;;5022834;28;20291;-71
2022/08/17 11:59:35;;;;;;;2.25;1.70;;;47.90;28.20;;;;;;5026561;28;20186;-73
2022/08/17 12:02:02;;;;;;;1.83;1.70;;;47.70;28.60;;;;;;5033342;28;20176;-73
2022/08/17 12:04:30;;;;;;;3.25;1.73;;;48.20;28.20;;;;;;5033368;28;20234;-73
2022/08/17 12:07:09;;;;;;;2.08;1.90;;;48.10;28.80;;;;;;5032389;28;20260;-75
2022/08/17 12:09:40;;;;;;;2.35;1.90;;;48.00;28.80;;;;;;5030541;28;20286;-74
2022/08/17 12:12:15;;;;;;;2.50;1.77;;;47.60;29.00;;;;;;5030865;28;20191;-74
2022/08/17 12:14:53;;;;;;;1.90;1.80;;;47.20;28.80;;;;;;5033684;28;20194;-74
2022/08/17 12:17:25;;;;;;;2.42;1.58;;;46.70;29.50;;;;;;5031201;28;20282;-74
2022/08/17 12:19:51;;;;;;;1.77;1.67;;;46.30;29.70;;;;;;5036837;28;20270;-73
2022/08/17 12:22:32;;;;;;;3.60;1.83;;;46.30;29.90;;;;;;5031185;28;20172;-73
2022/08/17 12:25:17;;;;;;;1.67;1.58;;;46.20;30.00;;;;;;5032635;28;20241;-73
2022/08/17 12:27:48;;;;;;;1.92;1.80;;;45.90;29.80;;;;;;5029570;28;20701;-73
2022/08/17 12:30:18;;;;;;;2.45;1.90;;;45.40;29.80;;;;;;5027599;28;20195;-73
2022/08/17 12:32:47;;;;;;;2.13;1.90;;;45.00;29.80;;;;;;5034075;28;20647;-73
2022/08/17 12:35:34;;;;;;;4.38;1.67;;;44.60;29.90;;;;;;5024431;28;20189;-72
2022/08/17 12:38:00;;;;;;;2.92;1.75;;;44.40;30.80;;;;;;5026067;28;20231;-74
2022/08/17 12:40:30;;;;;;;1.60;1.50;;;45.30;29.70;;;;;;5035733;28;20834;-74
2022/08/17 12:43:16;;;;;;;4.47;1.75;;;45.80;29.50;;;;;;5035222;28;20238;-73
2022/08/17 12:45:42;;;;;;;1.67;1.58;;;45.60;29.80;;;;;;5039849;28;20187;-73
2022/08/17 12:48:21;;;;;;;1.63;1.52;;;46.80;28.60;;;;;;5035674;28;20211;-73
2022/08/17 12:50:49;;;;;;;1.67;1.55;;;47.20;28.30;;;;;;5043848;28;20183;-74
2022/08/17 12:53:20;;;;;;;1.83;1.60;;;47.00;28.50;;;;;;5020307;28;20540;-74
2022/08/17 12:55:47;;;;;;;2.58;1.60;;;46.80;28.60;;;;;;5029563;28;20191;-73
2022/08/17 12:58:20;;;;;;;1.60;1.50;;;46.20;28.90;;;;;;5038140;28;20179;-73
2022/08/17 13:00:54;;;;;;;1.55;1.55;;;45.90;28.70;;;;;;5030836;28;20627;-73
2022/08/17 13:03:23;;;;;;;5.40;1.40;;;46.00;28.70;;;;;;5042013;28;20202;-73
2022/08/17 13:05:51;;;;;;;1.58;1.50;;;46.20;28.50;;;;;;5035155;28;20267;-74
2022/08/17 13:08:36;;;;;;;1.80;1.33;;;46.70;28.70;;;;;;5023312;28;20698;-73
2022/08/17 13:11:09;;;;;;;2.90;1.77;;;46.20;28.80;;;;;;5036734;28;20184;-73
2022/08/17 13:13:41;;;;;;;1.65;1.55;;;46.60;28.80;;;;;;5049791;28;20195;-72
2022/08/17 13:16:15;;;;;;;2.05;1.42;;;47.80;28.00;;;;;;5035997;28;20232;-71
2022/08/17 13:18:51;;;;;;;1.58;1.48;;;50.70;26.70;;;;;;5040266;28;20240;-73
2022/08/17 13:21:26;;;;;;;1.90;1.40;;;50.60;26.30;;;;;;5045476;28;20258;-71
2022/08/17 13:23:55;;;;;;;1.55;1.33;;;52.00;25.70;;;;;;5031766;28;20188;-72
2022/08/17 13:26:41;;;;;;;1.40;1.30;;;53.40;24.90;;;;;;5040490;28;20222;-73
2022/08/17 13:29:25;;;;;;;2.60;1.60;;;53.80;24.50;;;;;;5032533;28;20517;-72
2022/08/17 13:32:18;;;;;;;1.50;1.40;;;52.80;24.80;;;;;;5037284;28;20193;-73
2022/08/17 13:34:50;;;;;;;2.45;1.50;;;51.20;25.20;;;;;;5026975;28;20191;-73
2022/08/17 13:37:31;;;;;;;1.65;1.50;;;49.80;26.10;;;;;;5032496;28;20469;-73
2022/08/17 13:40:11;;;;;;;1.45;1.35;;;48.90;26.60;;;;;;5025681;28;20570;-74
2022/08/17 13:42:54;;;;;;;3.47;1.55;;;49.40;26.70;;;;;;5042264;28;20191;-74
2022/08/17 13:45:29;;;;;;;3.85;1.48;;;50.00;26.70;;;;;;5039710;28;20176;-73
2022/08/17 13:48:15;;;;;;;3.38;1.42;;;50.60;26.50;;;;;;5041944;28;20211;-73
2022/08/17 13:50:45;;;;;;;1.55;1.45;;;51.90;25.90;;;;;;5043281;28;20179;-73